首页
METAR-TAF:

METAR-TAF

机场 :

米蘭-利納特機場

米蘭, 意大利

纬度: 45-26N, 经度: 009-17E, 海拔: 107米

当前天气观测

该预报发布于40分钟前的09:20 UTC
风速4节,风向,在南转南东之间变化
温度 23°C
湿度 47%
气压 1018 hPa
能见度10公里或以上
1500米以下无云,无积雨云

METAR: LIML 010920Z 10004KT 350V160 CAVOK 23/11 Q1018 NOSIG

时间: 12:00 (10:00 UTC)

预报

该预报发布于17小时和0分钟前的17:00 UTC
预报有效从31日的 18点(UTC)到 01日的 18点(UTC)
风速6节,风向多变
能见度10公里或以上
散云层高于6000英尺

TAF: LIML 311700Z 3118/0118 VRB06KT 9999 SCT060

超过4000个机场的气象观测和天气预报(METAR&TAF报告)。

可查询的气象台以黄色和红色小点在地图上表示。

将鼠标移到小点上方,可查看气象台名称。

然后点击查看天气观测和预报。

如需切换地图:点击带黑十字的绿色按钮放大地图;点击带横线的绿色按钮缩小地图;或者点击绿色箭头查看邻近地区的地图。


METAR-TAF: